createdAt,value
2022-10-24T00:01:05.014Z,34
2022-10-24T00:16:05.505Z,35
2022-10-24T00:31:04.762Z,38
2022-10-24T00:46:05.388Z,38
2022-10-24T01:01:05.835Z,40
2022-10-24T01:16:05.470Z,37
2022-10-24T01:31:05.594Z,35
2022-10-24T01:46:04.850Z,36
2022-10-24T02:01:05.278Z,40
2022-10-24T02:16:05.407Z,35
2022-10-24T02:31:05.447Z,32
2022-10-24T02:46:05.531Z,33
2022-10-24T03:01:04.839Z,36
2022-10-24T03:16:05.974Z,29
2022-10-24T03:31:05.183Z,30
2022-10-24T03:46:05.440Z,28
2022-10-24T04:01:05.783Z,26
2022-10-24T04:16:04.940Z,23
2022-10-24T04:31:05.475Z,22
2022-10-24T04:46:05.305Z,17
2022-10-24T05:01:05.350Z,14
2022-10-24T05:16:05.610Z,13
2022-10-24T05:31:05.280Z,13
2022-10-24T05:46:05.118Z,9
2022-10-24T06:01:05.665Z,9
2022-10-24T06:16:05.372Z,10
2022-10-24T06:31:05.472Z,12
2022-10-24T06:46:05.548Z,12
2022-10-24T07:01:05.797Z,13
2022-10-24T07:16:04.784Z,14
2022-10-24T07:31:05.063Z,12
2022-10-24T07:46:04.927Z,12
2022-10-24T08:01:04.792Z,11
2022-10-24T08:16:05.455Z,13
2022-10-24T08:31:05.113Z,10
2022-10-24T08:46:05.136Z,11
2022-10-24T09:01:05.643Z,14
2022-10-24T09:16:05.966Z,12
2022-10-24T09:31:04.972Z,12
2022-10-24T09:46:04.898Z,12
2022-10-24T10:01:05.146Z,9
2022-10-24T10:16:05.227Z,8
2022-10-24T10:31:05.413Z,7
2022-10-24T10:46:05.677Z,7
2022-10-24T11:01:04.897Z,6
2022-10-24T11:16:04.995Z,5
2022-10-24T11:31:04.917Z,4
2022-10-24T11:46:05.554Z,5
2022-10-24T12:01:05.232Z,5
2022-10-24T12:16:05.444Z,5
2022-10-24T12:31:05.260Z,6
2022-10-24T12:46:09.372Z,6
2022-10-24T13:01:05.450Z,6
2022-10-24T13:16:05.487Z,7
2022-10-24T13:31:05.174Z,8
2022-10-24T13:46:06.545Z,7
2022-10-24T14:01:05.597Z,6
2022-10-24T14:16:05.259Z,8
2022-10-24T14:31:06.550Z,9
2022-10-24T15:01:05.264Z,11
2022-10-24T15:16:05.389Z,11
2022-10-24T15:31:05.691Z,13
2022-10-24T15:46:04.917Z,10
2022-10-24T16:01:05.744Z,13
2022-10-24T16:16:04.632Z,15
2022-10-24T16:31:05.685Z,17
2022-10-24T16:46:05.597Z,15
2022-10-24T17:01:04.963Z,16
2022-10-24T17:16:04.805Z,17
2022-10-24T17:31:05.351Z,19
2022-10-24T17:46:04.872Z,25
2022-10-24T18:01:05.455Z,23
2022-10-24T18:16:05.024Z,21
2022-10-24T18:31:04.982Z,20
2022-10-24T18:46:05.461Z,20
2022-10-24T19:01:05.329Z,19
2022-10-24T19:16:05.463Z,19
2022-10-24T19:31:04.969Z,20
2022-10-24T19:46:19.119Z,20
2022-10-24T20:01:05.202Z,21
2022-10-24T20:16:05.482Z,24
2022-10-24T20:31:05.294Z,24
2022-10-24T20:46:05.561Z,23
2022-10-24T21:01:05.278Z,25
2022-10-24T21:16:04.722Z,24
2022-10-24T21:31:04.887Z,30
2022-10-24T21:46:05.117Z,47
2022-10-24T22:01:05.128Z,29
2022-10-24T22:16:05.321Z,26
2022-10-24T22:31:05.589Z,28
2022-10-24T22:46:05.504Z,31
2022-10-24T23:01:05.584Z,33
2022-10-24T23:16:05.208Z,37
2022-10-24T23:31:05.363Z,39
2022-10-24T23:46:05.311Z,36
